Time;durP1;ratioP1;P1;durP2;ratioP2;P2;SDS_P1;SDS_P2;PMS_P1;PMS_P2;Temp;Humidity;BMP_temperature;BMP_pressure;BME280_temperature;BME280_humidity;BME280_pressure;Samples;Min_cycle;Max_cycle;Signal;HPM_P1;HPM_P2
2023/09/28 00:01:18;;;;;;;100.63;47.95;;;;;;;17.88;100.00;101610.97;5086804;28;20021;-69
2023/09/28 00:03:48;;;;;;;93.65;46.63;;;;;;;17.86;100.00;101612.25;5070736;28;20103;-70
2023/09/28 00:06:14;;;;;;;102.63;47.53;;;;;;;17.73;100.00;101584.06;5080874;28;20522;-70
2023/09/28 00:08:39;;;;;;;93.40;44.47;;;;;;;17.82;100.00;101606.44;5081278;28;20040;-70
2023/09/28 00:11:05;;;;;;;91.68;44.83;;;;;;;17.80;100.00;101603.09;5081525;28;20029;-70
2023/09/28 00:13:31;;;;;;;97.82;46.20;;;;;;;17.77;100.00;101607.09;5087286;28;20098;-70
2023/09/28 00:15:57;;;;;;;92.00;46.65;;;;;;;17.81;100.00;101610.19;5085379;28;20067;-70
2023/09/28 00:18:23;;;;;;;84.45;44.95;;;;;;;17.80;100.00;101601.19;5081191;28;20024;-70
2023/09/28 00:20:49;;;;;;;83.53;44.53;;;;;;;17.82;100.00;101601.81;5040711;28;20027;-70
2023/09/28 00:23:16;;;;;;;87.35;46.53;;;;;;;17.90;100.00;101594.38;5077703;28;20040;-70
2023/09/28 00:25:41;;;;;;;85.43;46.25;;;;;;;17.95;100.00;101591.81;5082647;28;20023;-70
2023/09/28 00:28:07;;;;;;;98.18;47.65;;;;;;;17.84;100.00;101580.63;5064548;28;20056;-70
2023/09/28 00:30:32;;;;;;;85.60;47.40;;;;;;;17.72;100.00;101582.44;5080847;28;20052;-70
2023/09/28 00:32:57;;;;;;;86.97;46.40;;;;;;;17.87;100.00;101589.41;5047600;28;20138;-71
2023/09/28 00:35:24;;;;;;;84.78;45.30;;;;;;;17.87;100.00;101587.50;5080162;28;20029;-70
2023/09/28 00:37:50;;;;;;;85.38;46.53;;;;;;;17.96;100.00;101586.13;5081061;28;20376;-71
2023/09/28 00:40:21;;;;;;;88.68;45.75;;;;;;;18.00;100.00;101581.06;5045206;28;20655;-70
2023/09/28 00:42:48;;;;;;;82.60;45.00;;;;;;;17.94;100.00;101584.69;5074903;28;20036;-70
2023/09/28 00:45:13;;;;;;;77.88;44.30;;;;;;;17.97;100.00;101576.91;5080261;28;20395;-70
2023/09/28 00:47:39;;;;;;;79.38;45.40;;;;;;;18.00;100.00;101581.06;5065978;28;20024;-70
2023/09/28 00:50:15;;;;;;;78.65;44.78;;;;;;;17.92;100.00;101573.22;5067507;28;20027;-70
2023/09/28 00:52:42;;;;;;;78.25;45.50;;;;;;;17.87;100.00;101570.34;5063942;28;20024;-70
2023/09/28 00:55:09;;;;;;;76.78;44.85;;;;;;;17.79;100.00;101575.03;5078757;28;20032;-70
2023/09/28 00:57:37;;;;;;;74.38;44.03;;;;;;;17.64;100.00;101525.56;5043001;28;20037;-70
2023/09/28 01:00:26;;;;;;;72.25;44.28;;;;;;;17.91;100.00;101569.63;5057787;28;20439;-70
2023/09/28 01:02:54;;;;;;;74.40;43.95;;;;;;;17.69;100.00;101552.94;5079073;28;20109;-70
2023/09/28 01:05:31;;;;;;;71.63;43.92;;;;;;;17.81;100.00;101559.31;5005320;28;1316009;-70
2023/09/28 01:08:05;;;;;;;66.20;41.55;;;;;;;17.75;100.00;101546.59;5057987;28;20037;-70
2023/09/28 01:10:35;;;;;;;62.70;41.15;;;;;;;17.41;100.00;101528.16;5062271;28;20060;-70
2023/09/28 01:13:01;;;;;;;65.25;41.53;;;;;;;17.40;100.00;101502.00;5048900;28;20096;-70
2023/09/28 01:15:28;;;;;;;67.72;43.25;;;;;;;17.58;100.00;101530.03;5087676;28;20032;-70
2023/09/28 01:17:54;;;;;;;58.60;39.35;;;;;;;17.64;100.00;101538.34;5079917;28;20438;-70
2023/09/28 01:20:30;;;;;;;66.32;42.20;;;;;;;17.71;100.00;101539.09;5080975;28;20043;-70
2023/09/28 01:22:55;;;;;;;55.67;40.22;;;;;;;17.83;100.00;101545.47;5081302;28;20024;-70
2023/09/28 01:25:21;;;;;;;56.17;39.20;;;;;;;17.82;100.00;101543.81;5081781;28;20093;-70
2023/09/28 01:27:46;;;;;;;58.67;39.42;;;;;;;17.75;100.00;101540.31;5062514;28;20031;-70
2023/09/28 01:30:13;;;;;;;61.90;40.40;;;;;;;17.68;100.00;101537.69;5062283;28;20029;-70
2023/09/28 01:32:39;;;;;;;55.17;37.90;;;;;;;17.54;100.00;101533.44;5061599;28;20021;-70
2023/09/28 01:35:07;;;;;;;56.50;38.47;;;;;;;17.49;100.00;101522.41;5060750;28;20036;-70
2023/09/28 01:37:54;;;;;;;57.13;38.92;;;;;;;17.61;100.00;101517.84;5059676;28;20085;-70
2023/09/28 01:40:19;;;;;;;50.08;37.22;;;;;;;17.61;100.00;101517.84;5076241;28;20050;-70
2023/09/28 01:42:45;;;;;;;55.65;37.55;;;;;;;17.59;100.00;101518.09;5084160;28;20029;-70
2023/09/28 01:45:11;;;;;;;51.60;36.45;;;;;;;17.58;100.00;101510.13;5050267;28;20028;-70
2023/09/28 01:47:37;;;;;;;48.10;35.38;;;;;;;17.66;100.00;101520.72;5063199;28;20021;-70
2023/09/28 01:50:03;;;;;;;45.63;32.45;;;;;;;17.73;100.00;101509.75;5080513;28;20052;-71
2023/09/28 01:52:29;;;;;;;45.40;33.80;;;;;;;17.64;100.00;101506.50;5075364;28;20048;-70
2023/09/28 01:54:54;;;;;;;39.10;30.58;;;;;;;17.60;100.00;101502.59;5078161;28;20030;-70
2023/09/28 01:57:20;;;;;;;38.63;30.55;;;;;;;17.57;100.00;101493.00;5048579;28;20033;-70
2023/09/28 01:59:46;;;;;;;42.08;30.15;;;;;;;17.71;100.00;101490.91;5082673;28;20025;-71
2023/09/28 02:02:11;;;;;;;37.28;30.23;;;;;;;17.71;100.00;101500.97;5032310;28;20036;-70
2023/09/28 02:04:37;;;;;;;34.05;28.42;;;;;;;17.76;100.00;101493.81;5062422;28;20057;-70
2023/09/28 02:07:04;;;;;;;36.10;28.85;;;;;;;17.80;100.00;101494.19;5078636;28;20130;-69
2023/09/28 02:09:30;;;;;;;33.42;27.48;;;;;;;17.77;100.00;101481.88;5078478;28;20032;-70
2023/09/28 02:11:55;;;;;;;33.40;27.08;;;;;;;17.65;100.00;101470.09;5078601;28;20047;-70
2023/09/28 02:14:20;;;;;;;32.67;26.75;;;;;;;17.64;100.00;101460.25;5059654;28;20032;-70
2023/09/28 02:16:46;;;;;;;32.55;25.45;;;;;;;17.67;100.00;101461.69;5042129;28;20071;-70
2023/09/28 02:19:12;;;;;;;29.15;23.77;;;;;;;17.61;100.00;101449.81;5061537;28;20037;-70
2023/09/28 02:21:37;;;;;;;25.48;22.50;;;;;;;17.70;100.00;101445.72;5060586;28;20035;-70
2023/09/28 02:24:03;;;;;;;25.88;21.15;;;;;;;17.79;100.00;101438.94;5060515;28;20044;-70
2023/09/28 02:26:28;;;;;;;26.90;21.88;;;;;;;17.72;100.00;101424.56;5079824;28;20025;-69
2023/09/28 02:28:54;;;;;;;27.00;22.25;;;;;;;17.76;100.00;101428.50;5043964;28;20036;-70
2023/09/28 02:31:19;;;;;;;27.42;22.00;;;;;;;17.74;100.00;101425.13;5042853;28;20073;-71
2023/09/28 02:33:47;;;;;;;23.60;21.02;;;;;;;17.65;100.00;101414.81;5073196;28;20033;-70
2023/09/28 02:36:12;;;;;;;23.67;20.85;;;;;;;17.65;100.00;101421.09;5055524;28;20097;-71
2023/09/28 02:38:38;;;;;;;25.02;21.10;;;;;;;17.60;100.00;101410.88;5076016;28;20052;-70
2023/09/28 02:41:03;;;;;;;23.15;19.83;;;;;;;17.65;100.00;101399.31;5021794;28;20476;-70
2023/09/28 02:43:28;;;;;;;23.08;20.20;;;;;;;17.79;100.00;101400.00;5057594;28;20032;-70
2023/09/28 02:45:55;;;;;;;24.05;20.23;;;;;;;17.84;100.00;101403.66;5058740;28;20418;-70
2023/09/28 02:48:21;;;;;;;21.45;19.17;;;;;;;17.77;100.00;101393.94;5029613;28;20515;-70
2023/09/28 02:50:48;;;;;;;23.63;18.52;;;;;;;17.78;100.00;101401.88;5083905;28;20074;-70
2023/09/28 02:53:13;;;;;;;24.23;19.85;;;;;;;17.91;100.00;101402.72;5061632;28;20090;-70
2023/09/28 02:55:39;;;;;;;20.25;17.95;;;;;;;17.87;100.00;101399.63;5045299;28;20399;-70
2023/09/28 02:58:04;;;;;;;22.20;18.05;;;;;;;17.84;100.00;101398.22;5079773;28;20036;-70
2023/09/28 03:00:32;;;;;;;18.65;16.42;;;;;;;17.78;100.00;101382.84;5061271;28;20099;-70
2023/09/28 03:03:03;;;;;;;21.63;17.17;;;;;;;17.78;100.00;101387.41;5044644;28;20052;-70
2023/09/28 03:05:28;;;;;;;19.40;16.48;;;;;;;17.80;100.00;101401.63;5079311;28;20048;-70
2023/09/28 03:07:54;;;;;;;18.73;16.55;;;;;;;17.90;100.00;101399.19;5060730;28;20104;-70
2023/09/28 03:10:19;;;;;;;19.63;17.38;;;;;;;18.06;100.00;101406.66;5079231;28;20050;-70
2023/09/28 03:12:51;;;;;;;17.77;15.73;;;;;;;18.17;100.00;101407.75;5043840;28;20154;-70
2023/09/28 03:15:17;;;;;;;17.83;15.45;;;;;;;18.18;100.00;101414.88;5061040;28;20120;-70
2023/09/28 03:17:43;;;;;;;17.15;15.07;;;;;;;18.19;100.00;101415.69;5060529;28;20025;-70
2023/09/28 03:20:17;;;;;;;18.48;15.35;;;;;;;18.15;100.00;101409.06;5079260;28;20027;-70
2023/09/28 03:22:47;;;;;;;20.17;14.63;;;;;;;18.18;100.00;101419.47;5060631;28;20035;-70
2023/09/28 03:25:21;;;;;;;16.52;14.50;;;;;;;18.17;100.00;101409.66;5076745;28;20157;-70
2023/09/28 03:27:48;;;;;;;17.73;14.70;;;;;;;18.09;100.00;101397.22;5043874;28;20016;-70
2023/09/28 03:30:15;;;;;;;15.73;13.95;;;;;;;18.08;100.00;101410.00;5059868;28;20043;-70
2023/09/28 03:32:40;;;;;;;16.35;14.55;;;;;;;17.83;100.00;101393.00;5058449;28;20028;-70
2023/09/28 03:35:10;;;;;;;15.88;13.93;;;;;;;17.90;100.00;101410.06;5077017;28;20077;-70
2023/09/28 03:37:36;;;;;;;19.55;14.30;;;;;;;17.87;100.00;101406.97;5044109;28;20028;-71
2023/09/28 03:40:09;;;;;;;15.32;13.73;;;;;;;17.74;100.00;101392.47;5073867;28;20021;-70
2023/09/28 03:42:36;;;;;;;14.82;13.05;;;;;;;17.73;100.00;101400.88;5043925;28;20113;-70
2023/09/28 03:45:02;;;;;;;14.90;13.38;;;;;;;17.75;100.00;101415.09;5063436;28;20111;-70
2023/09/28 03:47:27;;;;;;;17.02;12.98;;;;;;;17.79;100.00;101408.97;5061492;28;20115;-71
2023/09/28 03:49:53;;;;;;;14.55;12.88;;;;;;;17.70;100.00;101391.28;5059938;28;20506;-70
2023/09/28 03:52:18;;;;;;;16.15;12.95;;;;;;;17.61;100.00;101379.06;5079056;28;20064;-70
2023/09/28 03:54:44;;;;;;;14.68;12.85;;;;;;;17.51;100.00;101374.16;5060786;28;20057;-70
2023/09/28 03:57:09;;;;;;;15.20;12.13;;;;;;;17.61;100.00;101366.31;5079562;28;20395;-71
2023/09/28 03:59:35;;;;;;;14.05;12.25;;;;;;;17.53;100.00;101355.72;5060278;28;20044;-70
2023/09/28 04:02:01;;;;;;;14.90;11.77;;;;;;;17.66;100.00;101372.94;5077914;28;20213;-70
2023/09/28 04:04:27;;;;;;;12.65;11.35;;;;;;;17.73;100.00;101360.88;5042910;28;20033;-71
2023/09/28 04:06:52;;;;;;;12.27;11.02;;;;;;;17.74;100.00;101356.25;5078281;28;20074;-70
2023/09/28 04:09:17;;;;;;;12.45;11.23;;;;;;;17.83;100.00;101360.34;5059412;28;20036;-71
2023/09/28 04:11:44;;;;;;;11.45;10.23;;;;;;;17.78;100.00;101349.31;5059615;28;20036;-71
2023/09/28 04:14:10;;;;;;;11.52;10.43;;;;;;;17.84;100.00;101356.53;5020257;28;20028;-71
2023/09/28 04:16:36;;;;;;;11.88;10.10;;;;;;;17.91;100.00;101353.72;5057273;28;20461;-71
2023/09/28 04:19:02;;;;;;;11.25;10.15;;;;;;;17.88;100.00;101351.47;5077727;28;20025;-71
2023/09/28 04:21:27;;;;;;;10.80;9.70;;;;;;;17.93;100.00;101362.50;5042499;28;20086;-71
2023/09/28 04:23:54;;;;;;;10.82;9.68;;;;;;;17.93;100.00;101357.03;5059778;28;20020;-70
2023/09/28 04:26:19;;;;;;;14.80;10.07;;;;;;;17.84;100.00;101348.38;5037584;28;20592;-69
2023/09/28 04:28:45;;;;;;;13.77;9.63;;;;;;;17.94;100.00;101351.34;5054482;28;20028;-70
2023/09/28 04:31:10;;;;;;;12.25;9.85;;;;;;;17.78;100.00;101342.00;5056009;28;20025;-70
2023/09/28 04:33:35;;;;;;;11.10;9.80;;;;;;;17.84;100.00;101332.88;5073097;28;20082;-72
2023/09/28 04:36:01;;;;;;;13.80;9.85;;;;;;;17.80;100.00;101333.59;5056808;28;20051;-72
2023/09/28 04:38:26;;;;;;;10.60;9.02;;;;;;;17.81;100.00;101324.34;5023288;28;20028;-72
2023/09/28 04:40:52;;;;;;;11.30;9.63;;;;;;;17.69;100.00;101329.75;5077020;28;20158;-72
2023/09/28 04:43:17;;;;;;;10.93;9.60;;;;;;;17.76;100.00;101319.63;5063404;28;20048;-72
2023/09/28 04:45:42;;;;;;;10.85;9.68;;;;;;;17.81;100.00;101310.72;5059129;28;20394;-71
2023/09/28 04:48:08;;;;;;;11.45;9.70;;;;;;;17.90;100.00;101308.50;5060407;28;20520;-70
2023/09/28 04:50:34;;;;;;;11.48;9.23;;;;;;;17.95;100.00;101304.03;5060628;28;20028;-70
2023/09/28 04:52:59;;;;;;;11.73;9.43;;;;;;;18.02;100.00;101306.63;5063913;28;20044;-72
2023/09/28 04:55:24;;;;;;;10.70;9.63;;;;;;;18.06;100.00;101303.19;5081682;28;20109;-71
2023/09/28 04:57:52;;;;;;;11.02;9.60;;;;;;;18.07;100.00;101299.38;5029097;28;20032;-70
2023/09/28 05:00:17;;;;;;;11.00;9.15;;;;;;;18.15;100.00;101297.41;5058643;28;20083;-70
2023/09/28 05:02:46;;;;;;;12.73;9.60;;;;;;;18.10;100.00;101284.47;5025682;28;20036;-71
2023/09/28 05:05:12;;;;;;;12.13;9.57;;;;;;;18.21;100.00;101282.81;5059380;28;20057;-70
2023/09/28 05:07:38;;;;;;;10.90;9.88;;;;;;;18.26;100.00;101283.75;5060831;28;20039;-71
2023/09/28 05:10:05;;;;;;;12.38;9.88;;;;;;;18.29;100.00;101275.09;5061045;28;20033;-71
2023/09/28 05:12:31;;;;;;;11.57;9.82;;;;;;;18.34;100.00;101279.00;5059333;28;20166;-70
2023/09/28 05:14:57;;;;;;;11.20;9.77;;;;;;;18.38;100.00;101269.31;5057957;28;20058;-70
2023/09/28 05:17:23;;;;;;;12.02;10.10;;;;;;;18.43;100.00;101267.50;5059012;28;20117;-70
2023/09/28 05:19:48;;;;;;;12.02;9.55;;;;;;;18.51;100.00;101263.59;5078415;28;20475;-70
2023/09/28 05:22:15;;;;;;;16.63;10.45;;;;;;;18.43;100.00;101258.50;5060978;28;20411;-70
2023/09/28 05:24:40;;;;;;;16.80;10.13;;;;;;;18.49;100.00;101260.28;5079177;28;20051;-70
2023/09/28 05:27:06;;;;;;;10.80;9.70;;;;;;;18.51;100.00;101269.03;5080239;28;20368;-69
2023/09/28 05:29:31;;;;;;;11.80;9.85;;;;;;;18.59;100.00;101273.28;5047533;28;20483;-70
2023/09/28 05:31:57;;;;;;;12.50;9.25;;;;;;;18.61;100.00;101269.25;5082746;28;20087;-70
2023/09/28 05:34:22;;;;;;;12.30;9.40;;;;;;;18.57;100.00;101276.22;5063392;28;20475;-70
2023/09/28 05:36:47;;;;;;;14.05;9.73;;;;;;;18.67;100.00;101268.25;5080820;28;20040;-70
2023/09/28 05:39:13;;;;;;;13.80;9.77;;;;;;;18.68;100.00;101266.38;5080373;28;20509;-70
2023/09/28 05:41:38;;;;;;;14.48;10.48;;;;;;;18.72;100.00;101262.13;5080742;28;20029;-69
2023/09/28 05:44:04;;;;;;;13.18;9.85;;;;;;;18.71;100.00;101258.56;5063061;28;20483;-70
2023/09/28 05:46:30;;;;;;;13.98;9.45;;;;;;;18.75;100.00;101257.03;5062607;28;20028;-71
2023/09/28 05:48:56;;;;;;;11.25;9.23;;;;;;;18.89;100.00;101254.84;5077512;28;20024;-70
2023/09/28 05:51:21;;;;;;;14.75;9.30;;;;;;;19.02;100.00;101250.97;5056120;28;20040;-70
2023/09/28 05:53:47;;;;;;;14.18;9.43;;;;;;;18.97;100.00;101248.16;5079347;28;20063;-70
2023/09/28 05:56:12;;;;;;;12.48;8.88;;;;;;;19.04;100.00;101237.94;5062359;28;20376;-70
2023/09/28 05:58:37;;;;;;;14.50;9.35;;;;;;;19.18;100.00;101222.09;5062936;28;20029;-70
2023/09/28 06:01:07;;;;;;;14.57;9.27;;;;;;;19.37;100.00;101236.31;5056630;28;20025;-70
2023/09/28 06:03:35;;;;;;;14.80;9.00;;;;;;;19.33;100.00;101222.34;5057661;28;20130;-70
2023/09/28 06:06:01;;;;;;;11.55;8.82;;;;;;;19.19;100.00;101210.91;5059512;28;20062;-70
2023/09/28 06:08:26;;;;;;;10.88;9.10;;;;;;;19.23;100.00;101209.34;5077314;28;20036;-70
2023/09/28 06:10:52;;;;;;;11.70;8.73;;;;;;;19.27;100.00;101192.47;5059891;28;20035;-70
2023/09/28 06:13:18;;;;;;;12.50;9.10;;;;;;;19.24;100.00;101193.81;5061736;28;20028;-70
2023/09/28 06:15:44;;;;;;;10.63;9.32;;;;;;;19.28;100.00;101172.31;5044572;28;20024;-70
2023/09/28 06:18:09;;;;;;;11.52;9.15;;;;;;;19.32;100.00;101159.84;5059007;28;20158;-71
2023/09/28 06:20:35;;;;;;;9.98;8.90;;;;;;;19.40;100.00;101162.97;5060266;28;20029;-70
2023/09/28 06:23:00;;;;;;;13.93;9.68;;;;;;;19.44;100.00;101157.84;5077456;28;20056;-70
2023/09/28 06:25:26;;;;;;;13.98;10.43;;;;;;;19.40;100.00;101157.53;5059197;28;20490;-70
2023/09/28 06:27:51;;;;;;;14.93;10.57;;;;;;;19.58;100.00;101156.41;5043751;28;20056;-71
2023/09/28 06:30:17;;;;;;;13.82;10.15;;;;;;;19.42;100.00;101133.53;5060423;28;20100;-70
2023/09/28 06:32:42;;;;;;;14.18;10.65;;;;;;;19.58;100.00;101150.97;5061753;28;20040;-71
2023/09/28 06:35:09;;;;;;;13.38;10.77;;;;;;;19.66;100.00;101166.94;5045440;28;20032;-70
2023/09/28 06:37:34;;;;;;;13.45;10.93;;;;;;;19.87;100.00;101170.78;5062844;28;20028;-70
2023/09/28 06:40:00;;;;;;;16.10;10.68;;;;;;;20.01;100.00;101175.91;5062143;28;20027;-70
2023/09/28 06:42:25;;;;;;;16.60;12.07;;;;;;;19.96;100.00;101165.72;5080297;28;20021;-71
2023/09/28 06:44:50;;;;;;;13.55;11.82;;;;;;;20.18;100.00;101161.09;5079639;28;20121;-70
2023/09/28 06:47:16;;;;;;;15.50;12.75;;;;;;;20.07;100.00;101144.84;5061651;28;20052;-70
2023/09/28 06:49:41;;;;;;;15.68;12.82;;;;;;;20.33;100.00;101157.72;5060611;28;20039;-70
2023/09/28 06:52:07;;;;;;;19.67;13.18;;;;;;;20.39;100.00;101156.69;5060406;28;20033;-70
2023/09/28 06:54:32;;;;;;;16.05;12.75;;;;;;;20.50;100.00;101151.34;5086844;28;20024;-70
2023/09/28 06:56:58;;;;;;;19.88;13.75;;;;;;;20.58;100.00;101153.63;5087556;28;20040;-70
2023/09/28 06:59:23;;;;;;;17.25;12.95;;;;;;;20.69;100.00;101138.97;5062927;28;20082;-70
2023/09/28 07:01:49;;;;;;;20.92;14.15;;;;;;;20.75;100.00;101137.13;5041501;28;20040;-71
2023/09/28 07:04:15;;;;;;;23.90;13.68;;;;;;;20.88;100.00;101132.06;5075362;28;20478;-70
2023/09/28 07:06:40;;;;;;;19.40;13.32;;;;;;;21.03;100.00;101131.38;5043997;28;20509;-70
2023/09/28 07:09:06;;;;;;;19.17;14.85;;;;;;;20.95;100.00;101141.97;5079307;28;20099;-71
2023/09/28 07:11:32;;;;;;;19.20;13.82;;;;;;;20.84;100.00;101125.47;5046254;28;20033;-70
2023/09/28 07:13:57;;;;;;;19.60;13.90;;;;;;;21.02;100.00;101148.84;5045762;28;20034;-70
2023/09/28 07:16:23;;;;;;;18.88;14.75;;;;;;;20.94;100.00;101130.19;5080463;28;20056;-70
2023/09/28 07:18:49;;;;;;;20.55;14.27;;;;;;;21.07;100.00;101145.34;5083842;28;20039;-70
2023/09/28 07:21:14;;;;;;;19.08;14.13;;;;;;;21.06;100.00;101144.53;5065981;28;20054;-71
2023/09/28 07:23:41;;;;;;;22.67;14.90;;;;;;;21.04;100.00;101143.97;5081968;28;20017;-71
2023/09/28 07:26:16;;;;;;;25.92;14.15;;;;;;;21.09;100.00;101154.09;5063409;28;20406;-71
2023/09/28 07:28:43;;;;;;;19.80;14.15;;;;;;;21.14;100.00;101145.13;5081895;28;20091;-70
2023/09/28 07:31:09;;;;;;;18.75;13.65;;;;;;;21.21;100.00;101141.09;5081795;28;20033;-70
2023/09/28 07:33:35;;;;;;;22.92;14.43;;;;;;;21.20;100.00;101130.41;5081096;28;20475;-70
2023/09/28 07:36:00;;;;;;;22.25;14.73;;;;;;;21.11;100.00;101125.41;5080217;28;20033;-71
2023/09/28 07:38:26;;;;;;;21.33;13.88;;;;;;;21.17;100.00;101112.59;5061945;28;20039;-70
2023/09/28 07:40:51;;;;;;;20.35;14.43;;;;;;;21.32;100.00;101120.09;5061598;28;20035;-70
2023/09/28 07:43:16;;;;;;;19.75;15.05;;;;;;;21.28;100.00;101103.38;5062192;28;20063;-70
2023/09/28 07:45:42;;;;;;;24.02;15.10;;;;;;;21.39;100.00;101114.41;5063154;28;20024;-70
2023/09/28 07:48:07;;;;;;;20.80;14.43;;;;;;;21.40;100.00;101110.59;5081919;28;20024;-71
2023/09/28 07:50:33;;;;;;;18.02;14.55;;;;;;;21.43;100.00;101108.16;5029917;28;20530;-70
2023/09/28 07:52:59;;;;;;;16.40;13.88;;;;;;;21.47;100.00;101112.00;5043654;28;20090;-70
2023/09/28 07:55:24;;;;;;;22.73;14.75;;;;;;;21.42;100.00;101102.94;5042667;28;20032;-71
2023/09/28 07:57:50;;;;;;;20.50;14.85;;;;;;;21.50;100.00;101111.47;5085585;28;20085;-71
2023/09/28 08:00:17;;;;;;;18.92;14.82;;;;;;;21.57;100.00;101105.78;5051297;28;20029;-71
2023/09/28 08:02:43;;;;;;;18.70;14.82;;;;;;;21.61;100.00;101117.03;5082296;28;20032;-71
2023/09/28 08:05:08;;;;;;;20.33;14.48;;;;;;;21.64;100.00;101111.84;5064297;28;20056;-70
2023/09/28 08:07:34;;;;;;;20.90;14.70;;;;;;;21.62;100.00;101103.03;5083340;28;20422;-70
2023/09/28 08:10:01;;;;;;;17.45;14.13;;;;;;;21.66;100.00;101114.31;5062005;28;20107;-70
2023/09/28 08:12:27;;;;;;;18.90;15.13;;;;;;;21.76;100.00;101115.19;5064823;28;20548;-70
2023/09/28 08:14:53;;;;;;;18.40;13.63;;;;;;;21.81;100.00;101109.72;5065480;28;20040;-70
2023/09/28 08:17:19;;;;;;;18.60;13.90;;;;;;;21.89;100.00;101113.06;5065848;28;20025;-70
2023/09/28 08:19:45;;;;;;;16.73;13.70;;;;;;;21.91;100.00;101111.69;5065843;28;20031;-70
2023/09/28 08:22:10;;;;;;;20.05;13.77;;;;;;;22.04;100.00;101099.41;5065850;28;20111;-70
2023/09/28 08:24:36;;;;;;;21.38;13.20;;;;;;;22.07;100.00;101109.84;5065488;28;20071;-70
2023/09/28 08:27:01;;;;;;;17.80;14.30;;;;;;;22.09;100.00;101104.09;5067309;28;20407;-70
2023/09/28 08:29:27;;;;;;;21.77;12.98;;;;;;;22.27;100.00;101100.88;5069223;28;20048;-70
2023/09/28 08:31:54;;;;;;;16.70;13.43;;;;;;;22.37;100.00;101092.69;5068484;28;20551;-71
2023/09/28 08:34:20;;;;;;;17.65;12.98;;;;;;;22.54;100.00;101091.63;5065581;28;20063;-70
2023/09/28 08:36:45;;;;;;;20.48;13.80;;;;;;;22.59;100.00;101100.69;5081908;28;20037;-70
2023/09/28 08:39:10;;;;;;;21.08;13.15;;;;;;;22.59;100.00;101105.34;5084765;28;20024;-71
2023/09/28 08:41:43;;;;;;;18.10;13.30;;;;;;;22.73;100.00;101101.78;5065997;28;20082;-70
2023/09/28 08:44:09;;;;;;;20.63;13.43;;;;;;;22.87;100.00;101118.53;5065794;28;20117;-70
2023/09/28 08:46:39;;;;;;;20.00;13.88;;;;;;;22.85;100.00;101125.41;5065833;28;20028;-70
2023/09/28 08:49:09;;;;;;;16.77;13.45;;;;;;;22.83;100.00;101116.63;5062122;28;20021;-70
2023/09/28 08:51:36;;;;;;;16.77;12.93;;;;;;;22.84;100.00;101123.75;5081588;28;20029;-70
2023/09/28 08:54:05;;;;;;;16.98;13.27;;;;;;;22.81;100.00;101119.63;5064667;28;20494;-70
2023/09/28 08:56:37;;;;;;;15.88;12.68;;;;;;;22.93;99.41;101101.00;5065528;28;20070;-70
2023/09/28 08:59:06;;;;;;;14.02;12.60;;;;;;;22.95;98.66;101092.50;5079358;28;20028;-71
2023/09/28 09:01:32;;;;;;;18.48;13.70;;;;;;;23.02;98.07;101094.97;5065012;28;20024;-70
2023/09/28 09:03:59;;;;;;;14.90;12.60;;;;;;;23.19;97.46;101092.75;5082424;28;20402;-70
2023/09/28 09:06:30;;;;;;;14.95;11.95;;;;;;;23.24;97.12;101098.22;5084943;28;20048;-70
2023/09/28 09:09:00;;;;;;;16.20;12.90;;;;;;;23.24;96.90;101090.00;5067141;28;20046;-71
2023/09/28 09:11:29;;;;;;;16.15;13.00;;;;;;;23.19;97.22;101073.53;5084964;28;20082;-71
2023/09/28 09:13:54;;;;;;;13.77;12.00;;;;;;;23.33;96.57;101071.88;5067571;28;20451;-70
2023/09/28 09:16:24;;;;;;;15.25;12.98;;;;;;;23.44;95.54;101057.03;5051589;28;20112;-71
2023/09/28 09:18:52;;;;;;;15.13;12.02;;;;;;;23.63;94.79;101079.19;5068131;28;20403;-70
2023/09/28 09:21:18;;;;;;;13.57;12.07;;;;;;;23.65;94.19;101070.69;5086064;28;20104;-70
2023/09/28 09:23:59;;;;;;;14.55;12.38;;;;;;;23.60;94.40;101066.00;5050440;28;20088;-70
2023/09/28 09:26:24;;;;;;;15.43;12.52;;;;;;;23.59;93.89;101067.13;5086035;28;20087;-70
2023/09/28 09:28:50;;;;;;;12.70;11.50;;;;;;;23.75;93.38;101076.16;5067998;28;20062;-71
2023/09/28 09:31:15;;;;;;;15.18;11.90;;;;;;;23.90;92.81;101070.59;5068434;28;20029;-71
2023/09/28 09:33:43;;;;;;;14.98;12.00;;;;;;;24.04;92.45;101087.31;5085899;28;20031;-70
2023/09/28 09:36:08;;;;;;;14.93;12.13;;;;;;;23.85;92.68;101062.38;5050626;28;20115;-70
2023/09/28 09:38:34;;;;;;;16.58;12.30;;;;;;;23.91;92.51;101075.00;5085742;28;20020;-70
2023/09/28 09:41:01;;;;;;;13.85;11.70;;;;;;;23.78;92.71;101061.88;5074573;28;20029;-71
2023/09/28 09:43:35;;;;;;;13.68;11.90;;;;;;;23.89;92.26;101068.97;5062612;28;20052;-70
2023/09/28 09:46:05;;;;;;;16.15;12.23;;;;;;;23.88;92.52;101055.50;5080152;28;20036;-71
2023/09/28 09:48:41;;;;;;;13.93;11.15;;;;;;;23.76;92.88;101061.31;5043837;28;20032;-70
2023/09/28 09:51:13;;;;;;;15.43;12.27;;;;;;;23.76;92.33;101060.50;5060518;28;20040;-70
2023/09/28 09:53:41;;;;;;;13.23;11.50;;;;;;;23.74;92.51;101069.03;5075781;28;20056;-70
2023/09/28 09:56:07;;;;;;;13.38;11.77;;;;;;;23.74;92.60;101066.28;5080078;28;20025;-70
2023/09/28 09:58:39;;;;;;;16.98;11.38;;;;;;;23.70;92.50;101059.69;5065042;28;20020;-70
2023/09/28 10:01:12;;;;;;;15.05;12.15;;;;;;;23.64;93.04;101069.03;5051689;28;20020;-70
2023/09/28 10:03:52;;;;;;;17.42;12.65;;;;;;;23.73;92.38;101066.56;5061654;28;20046;-71
2023/09/28 10:06:22;;;;;;;18.33;11.85;;;;;;;23.76;92.66;101061.31;5081546;28;20053;-71
2023/09/28 10:08:53;;;;;;;15.32;11.98;;;;;;;23.73;92.20;101059.13;5081431;28;20039;-71
2023/09/28 10:11:19;;;;;;;16.27;11.77;;;;;;;23.75;92.28;101061.63;5081548;28;20056;-71
2023/09/28 10:13:44;;;;;;;16.20;12.00;;;;;;;23.85;91.95;101067.06;5063907;28;20035;-70
2023/09/28 10:16:13;;;;;;;24.58;11.95;;;;;;;23.94;91.74;101070.88;5046658;28;20031;-70
2023/09/28 10:18:41;;;;;;;19.00;11.82;;;;;;;23.95;91.20;101074.44;5062977;28;20114;-71
2023/09/28 10:21:06;;;;;;;13.80;11.85;;;;;;;24.08;90.33;101082.06;5061109;28;20047;-71
2023/09/28 10:23:32;;;;;;;15.70;11.80;;;;;;;23.98;90.81;101069.19;5063947;28;20036;-71
2023/09/28 10:25:58;;;;;;;20.95;13.60;;;;;;;23.99;90.55;101067.28;5081452;28;20402;-71
2023/09/28 10:28:24;;;;;;;19.02;12.25;;;;;;;24.00;90.53;101068.91;5063149;28;20031;-71
2023/09/28 10:31:13;;;;;;;18.58;12.50;;;;;;;24.00;90.45;101069.72;5081352;28;20321;-71
2023/09/28 10:33:58;;;;;;;18.17;12.40;;;;;;;24.12;90.14;101072.16;5081086;28;20025;-71
2023/09/28 10:36:24;;;;;;;16.55;12.27;;;;;;;24.04;90.10;101072.72;5081776;28;20029;-70
2023/09/28 10:39:09;;;;;;;20.10;12.68;;;;;;;24.07;89.44;101069.41;5081577;28;20406;-70
2023/09/28 10:41:38;;;;;;;20.05;12.45;;;;;;;24.12;88.97;101067.47;5073848;28;20107;-70
2023/09/28 10:44:16;;;;;;;18.23;12.68;;;;;;;24.14;88.98;101068.03;5061151;28;21084;-70
2023/09/28 10:46:42;;;;;;;19.17;12.95;;;;;;;24.20;88.84;101078.97;5060794;28;20541;-71
2023/09/28 10:49:07;;;;;;;17.25;13.05;;;;;;;24.07;89.36;101069.41;5043581;28;20101;-71
2023/09/28 10:51:33;;;;;;;19.88;12.98;;;;;;;24.05;88.87;101060.66;5059270;28;20131;-71
2023/09/28 10:53:59;;;;;;;20.52;13.13;;;;;;;24.08;88.24;101065.56;5060784;28;20597;-71
2023/09/28 10:56:25;;;;;;;18.65;13.02;;;;;;;23.94;89.00;101075.53;5058102;28;20028;-71
2023/09/28 10:58:50;;;;;;;19.25;12.90;;;;;;;23.93;89.05;101069.22;5040042;28;20032;-71
2023/09/28 11:01:16;;;;;;;16.95;13.40;;;;;;;23.89;88.95;101095.63;5060028;28;20039;-70
2023/09/28 11:03:42;;;;;;;17.23;12.45;;;;;;;23.98;88.54;101093.13;5081770;28;20028;-70